sensor_id;sensor_type;location;lat;lon;timestamp;temperature;humidity
1680;DHT22;838;51.794;12.258;2022-11-12T00:00:30;7.10;74.30
1680;DHT22;838;51.794;12.258;2022-11-12T00:02:56;7.00;76.00
1680;DHT22;838;51.794;12.258;2022-11-12T00:05:22;6.80;77.30
1680;DHT22;838;51.794;12.258;2022-11-12T00:07:48;6.90;79.30
1680;DHT22;838;51.794;12.258;2022-11-12T00:10:14;6.80;80.80
1680;DHT22;838;51.794;12.258;2022-11-12T00:12:40;6.80;82.60
1680;DHT22;838;51.794;12.258;2022-11-12T00:15:06;6.80;82.00
1680;DHT22;838;51.794;12.258;2022-11-12T00:17:31;6.80;81.80
1680;DHT22;838;51.794;12.258;2022-11-12T00:19:57;6.80;81.60
1680;DHT22;838;51.794;12.258;2022-11-12T00:22:23;6.90;81.80
1680;DHT22;838;51.794;12.258;2022-11-12T00:24:49;6.90;81.90
1680;DHT22;838;51.794;12.258;2022-11-12T00:27:14;6.90;80.80
1680;DHT22;838;51.794;12.258;2022-11-12T00:29:40;6.80;81.60
1680;DHT22;838;51.794;12.258;2022-11-12T00:32:07;6.70;81.80
1680;DHT22;838;51.794;12.258;2022-11-12T00:34:33;6.70;82.00
1680;DHT22;838;51.794;12.258;2022-11-12T00:37:00;6.60;83.00
1680;DHT22;838;51.794;12.258;2022-11-12T00:39:27;6.60;83.30
1680;DHT22;838;51.794;12.258;2022-11-12T00:41:53;6.60;83.00
1680;DHT22;838;51.794;12.258;2022-11-12T00:44:19;6.60;82.80
1680;DHT22;838;51.794;12.258;2022-11-12T00:46:45;6.60;83.50
1680;DHT22;838;51.794;12.258;2022-11-12T00:49:11;6.70;83.80
1680;DHT22;838;51.794;12.258;2022-11-12T00:51:37;6.80;84.30
1680;DHT22;838;51.794;12.258;2022-11-12T00:54:03;6.90;81.90
1680;DHT22;838;51.794;12.258;2022-11-12T00:56:29;7.00;80.40
1680;DHT22;838;51.794;12.258;2022-11-12T00:58:55;7.30;79.40
1680;DHT22;838;51.794;12.258;2022-11-12T01:01:21;7.60;74.00
1680;DHT22;838;51.794;12.258;2022-11-12T01:03:47;7.90;69.10
1680;DHT22;838;51.794;12.258;2022-11-12T01:06:17;7.90;66.80
1680;DHT22;838;51.794;12.258;2022-11-12T01:08:43;7.90;65.40
1680;DHT22;838;51.794;12.258;2022-11-12T01:11:12;7.80;65.60
1680;DHT22;838;51.794;12.258;2022-11-12T01:13:41;7.60;67.50
1680;DHT22;838;51.794;12.258;2022-11-12T01:16:08;7.40;69.20
1680;DHT22;838;51.794;12.258;2022-11-12T01:18:34;7.30;70.70
1680;DHT22;838;51.794;12.258;2022-11-12T01:21:02;7.10;73.70
1680;DHT22;838;51.794;12.258;2022-11-12T01:23:28;7.10;74.30
1680;DHT22;838;51.794;12.258;2022-11-12T01:25:54;7.20;74.70
1680;DHT22;838;51.794;12.258;2022-11-12T01:28:19;7.30;72.90
1680;DHT22;838;51.794;12.258;2022-11-12T01:30:45;7.40;72.50
1680;DHT22;838;51.794;12.258;2022-11-12T01:33:11;7.80;68.10
1680;DHT22;838;51.794;12.258;2022-11-12T01:35:36;7.90;63.40
1680;DHT22;838;51.794;12.258;2022-11-12T01:38:02;8.10;60.00
1680;DHT22;838;51.794;12.258;2022-11-12T01:40:28;8.00;59.50
1680;DHT22;838;51.794;12.258;2022-11-12T01:42:54;8.10;58.50
1680;DHT22;838;51.794;12.258;2022-11-12T01:45:19;8.10;57.30
1680;DHT22;838;51.794;12.258;2022-11-12T01:47:48;8.20;54.90
1680;DHT22;838;51.794;12.258;2022-11-12T01:50:27;8.20;54.20
1680;DHT22;838;51.794;12.258;2022-11-12T01:52:58;8.30;54.10
1680;DHT22;838;51.794;12.258;2022-11-12T01:55:29;8.30;53.20
1680;DHT22;838;51.794;12.258;2022-11-12T01:58:12;8.30;52.20
1680;DHT22;838;51.794;12.258;2022-11-12T02:00:39;8.20;51.90
1680;DHT22;838;51.794;12.258;2022-11-12T02:03:09;8.20;49.40
1680;DHT22;838;51.794;12.258;2022-11-12T02:05:38;8.00;48.50
1680;DHT22;838;51.794;12.258;2022-11-12T02:08:05;7.90;49.90
1680;DHT22;838;51.794;12.258;2022-11-12T02:10:33;7.70;52.50
1680;DHT22;838;51.794;12.258;2022-11-12T02:12:59;7.50;56.20
1680;DHT22;838;51.794;12.258;2022-11-12T02:15:44;7.30;59.00
1680;DHT22;838;51.794;12.258;2022-11-12T02:18:10;7.10;60.60
1680;DHT22;838;51.794;12.258;2022-11-12T02:20:37;7.10;62.30
1680;DHT22;838;51.794;12.258;2022-11-12T02:23:05;7.10;60.80
1680;DHT22;838;51.794;12.258;2022-11-12T02:25:31;7.10;61.10
1680;DHT22;838;51.794;12.258;2022-11-12T02:27:58;7.10;59.70
1680;DHT22;838;51.794;12.258;2022-11-12T02:30:32;7.20;59.40
1680;DHT22;838;51.794;12.258;2022-11-12T02:32:58;7.10;57.80
1680;DHT22;838;51.794;12.258;2022-11-12T02:35:24;7.00;58.90
1680;DHT22;838;51.794;12.258;2022-11-12T02:37:50;6.80;58.90
1680;DHT22;838;51.794;12.258;2022-11-12T02:40:15;6.60;61.90
1680;DHT22;838;51.794;12.258;2022-11-12T02:42:41;6.50;60.70
1680;DHT22;838;51.794;12.258;2022-11-12T02:45:07;6.50;62.20
1680;DHT22;838;51.794;12.258;2022-11-12T02:47:33;6.70;61.40
1680;DHT22;838;51.794;12.258;2022-11-12T02:49:59;7.00;57.00
1680;DHT22;838;51.794;12.258;2022-11-12T02:52:25;7.10;54.50
1680;DHT22;838;51.794;12.258;2022-11-12T02:54:51;7.20;54.80
1680;DHT22;838;51.794;12.258;2022-11-12T02:57:16;7.30;52.30
1680;DHT22;838;51.794;12.258;2022-11-12T02:59:42;7.40;49.40
1680;DHT22;838;51.794;12.258;2022-11-12T03:02:08;7.40;47.90
1680;DHT22;838;51.794;12.258;2022-11-12T03:04:33;7.50;47.30
1680;DHT22;838;51.794;12.258;2022-11-12T03:06:59;7.60;46.20
1680;DHT22;838;51.794;12.258;2022-11-12T03:09:25;7.70;44.10
1680;DHT22;838;51.794;12.258;2022-11-12T03:11:51;7.70;42.30
1680;DHT22;838;51.794;12.258;2022-11-12T03:14:16;7.60;41.80
1680;DHT22;838;51.794;12.258;2022-11-12T03:16:42;7.40;41.10
1680;DHT22;838;51.794;12.258;2022-11-12T03:19:08;7.20;43.10
1680;DHT22;838;51.794;12.258;2022-11-12T03:21:33;7.00;43.00
1680;DHT22;838;51.794;12.258;2022-11-12T03:24:00;6.70;46.40
1680;DHT22;838;51.794;12.258;2022-11-12T03:26:26;6.40;50.30
1680;DHT22;838;51.794;12.258;2022-11-12T03:28:52;6.10;53.70
1680;DHT22;838;51.794;12.258;2022-11-12T03:31:18;6.10;55.10
1680;DHT22;838;51.794;12.258;2022-11-12T03:33:44;6.00;54.30
1680;DHT22;838;51.794;12.258;2022-11-12T03:36:10;6.10;52.80
1680;DHT22;838;51.794;12.258;2022-11-12T03:38:36;6.00;54.10
1680;DHT22;838;51.794;12.258;2022-11-12T03:41:02;6.20;55.50
1680;DHT22;838;51.794;12.258;2022-11-12T03:43:28;6.40;52.50
1680;DHT22;838;51.794;12.258;2022-11-12T03:45:54;6.50;50.20
1680;DHT22;838;51.794;12.258;2022-11-12T03:48:19;6.60;46.20
1680;DHT22;838;51.794;12.258;2022-11-12T03:50:45;6.40;44.50
1680;DHT22;838;51.794;12.258;2022-11-12T03:53:11;6.40;46.20
1680;DHT22;838;51.794;12.258;2022-11-12T03:55:37;6.00;48.70
1680;DHT22;838;51.794;12.258;2022-11-12T03:58:02;5.70;53.20
1680;DHT22;838;51.794;12.258;2022-11-12T04:00:29;5.60;54.50
1680;DHT22;838;51.794;12.258;2022-11-12T04:02:55;5.30;57.30
1680;DHT22;838;51.794;12.258;2022-11-12T04:05:22;4.90;62.80
1680;DHT22;838;51.794;12.258;2022-11-12T04:08:11;4.80;64.90
1680;DHT22;838;51.794;12.258;2022-11-12T04:10:56;4.50;69.10
1680;DHT22;838;51.794;12.258;2022-11-12T04:13:22;4.60;70.50
1680;DHT22;838;51.794;12.258;2022-11-12T04:16:02;4.70;69.60
1680;DHT22;838;51.794;12.258;2022-11-12T04:19:05;4.60;69.00
1680;DHT22;838;51.794;12.258;2022-11-12T04:22:15;4.90;67.50
1680;DHT22;838;51.794;12.258;2022-11-12T04:24:41;5.10;66.60
1680;DHT22;838;51.794;12.258;2022-11-12T04:27:28;5.20;66.00
1680;DHT22;838;51.794;12.258;2022-11-12T04:29:54;5.10;64.10
1680;DHT22;838;51.794;12.258;2022-11-12T04:32:46;5.10;64.70
1680;DHT22;838;51.794;12.258;2022-11-12T04:35:12;5.40;61.40
1680;DHT22;838;51.794;12.258;2022-11-12T04:37:38;5.70;59.10
1680;DHT22;838;51.794;12.258;2022-11-12T04:40:17;5.90;52.50
1680;DHT22;838;51.794;12.258;2022-11-12T04:43:02;5.80;50.00
1680;DHT22;838;51.794;12.258;2022-11-12T04:45:49;5.70;48.50
1680;DHT22;838;51.794;12.258;2022-11-12T04:48:15;5.40;51.00
1680;DHT22;838;51.794;12.258;2022-11-12T04:50:42;5.30;53.70
1680;DHT22;838;51.794;12.258;2022-11-12T04:53:09;5.20;55.10
1680;DHT22;838;51.794;12.258;2022-11-12T04:55:35;5.00;56.60
1680;DHT22;838;51.794;12.258;2022-11-12T04:58:01;5.10;55.60
1680;DHT22;838;51.794;12.258;2022-11-12T05:00:27;5.20;54.00
1680;DHT22;838;51.794;12.258;2022-11-12T05:02:53;5.30;52.70
1680;DHT22;838;51.794;12.258;2022-11-12T05:05:19;5.60;50.00
1680;DHT22;838;51.794;12.258;2022-11-12T05:07:45;5.70;47.10
1680;DHT22;838;51.794;12.258;2022-11-12T05:10:11;5.80;45.60
1680;DHT22;838;51.794;12.258;2022-11-12T05:12:36;5.70;44.30
1680;DHT22;838;51.794;12.258;2022-11-12T05:15:03;5.50;45.40
1680;DHT22;838;51.794;12.258;2022-11-12T05:17:29;5.20;47.40
1680;DHT22;838;51.794;12.258;2022-11-12T05:19:55;4.60;53.30
1680;DHT22;838;51.794;12.258;2022-11-12T05:22:20;4.30;58.70
1680;DHT22;838;51.794;12.258;2022-11-12T05:24:46;4.20;59.40
1680;DHT22;838;51.794;12.258;2022-11-12T05:27:19;4.00;61.10
1680;DHT22;838;51.794;12.258;2022-11-12T05:29:45;3.80;62.50
1680;DHT22;838;51.794;12.258;2022-11-12T05:32:13;3.60;65.50
1680;DHT22;838;51.794;12.258;2022-11-12T05:34:40;3.40;67.70
1680;DHT22;838;51.794;12.258;2022-11-12T05:37:11;3.20;69.90
1680;DHT22;838;51.794;12.258;2022-11-12T05:39:37;3.10;71.80
1680;DHT22;838;51.794;12.258;2022-11-12T05:42:04;2.90;74.00
1680;DHT22;838;51.794;12.258;2022-11-12T05:44:29;2.90;76.40
1680;DHT22;838;51.794;12.258;2022-11-12T05:46:55;2.90;77.10
1680;DHT22;838;51.794;12.258;2022-11-12T05:49:21;2.90;79.40
1680;DHT22;838;51.794;12.258;2022-11-12T05:51:47;3.10;77.40
1680;DHT22;838;51.794;12.258;2022-11-12T05:54:13;3.30;74.30
1680;DHT22;838;51.794;12.258;2022-11-12T05:56:39;3.40;74.50
1680;DHT22;838;51.794;12.258;2022-11-12T05:59:06;3.40;75.70
1680;DHT22;838;51.794;12.258;2022-11-12T06:01:33;3.50;77.30
1680;DHT22;838;51.794;12.258;2022-11-12T06:04:03;3.70;77.50
1680;DHT22;838;51.794;12.258;2022-11-12T06:06:29;3.80;75.40
1680;DHT22;838;51.794;12.258;2022-11-12T06:08:55;3.80;76.10
1680;DHT22;838;51.794;12.258;2022-11-12T06:11:20;3.80;77.60
1680;DHT22;838;51.794;12.258;2022-11-12T06:13:46;4.00;77.20
1680;DHT22;838;51.794;12.258;2022-11-12T06:16:12;4.20;77.10
1680;DHT22;838;51.794;12.258;2022-11-12T06:18:38;4.40;73.40
1680;DHT22;838;51.794;12.258;2022-11-12T06:21:06;4.50;71.50
1680;DHT22;838;51.794;12.258;2022-11-12T06:24:04;4.80;71.50
1680;DHT22;838;51.794;12.258;2022-11-12T06:26:30;5.00;66.30
1680;DHT22;838;51.794;12.258;2022-11-12T06:28:56;4.90;63.70
1680;DHT22;838;51.794;12.258;2022-11-12T06:31:22;4.70;64.90
1680;DHT22;838;51.794;12.258;2022-11-12T06:33:49;4.60;65.90
1680;DHT22;838;51.794;12.258;2022-11-12T06:36:17;4.50;68.40
1680;DHT22;838;51.794;12.258;2022-11-12T06:38:43;4.50;69.90
1680;DHT22;838;51.794;12.258;2022-11-12T06:41:10;4.50;70.00
1680;DHT22;838;51.794;12.258;2022-11-12T06:43:37;4.50;71.90
1680;DHT22;838;51.794;12.258;2022-11-12T06:46:12;4.40;71.60
1680;DHT22;838;51.794;12.258;2022-11-12T06:48:38;4.40;72.00
1680;DHT22;838;51.794;12.258;2022-11-12T06:51:22;4.50;73.80
1680;DHT22;838;51.794;12.258;2022-11-12T06:53:48;4.80;70.40
1680;DHT22;838;51.794;12.258;2022-11-12T06:56:14;4.90;65.60
1680;DHT22;838;51.794;12.258;2022-11-12T06:58:41;5.00;68.20
1680;DHT22;838;51.794;12.258;2022-11-12T07:01:12;5.00;66.70
1680;DHT22;838;51.794;12.258;2022-11-12T07:03:39;5.10;68.10
1680;DHT22;838;51.794;12.258;2022-11-12T07:06:12;5.20;67.80
1680;DHT22;838;51.794;12.258;2022-11-12T07:08:39;5.50;65.70
1680;DHT22;838;51.794;12.258;2022-11-12T07:11:05;5.70;62.50
1680;DHT22;838;51.794;12.258;2022-11-12T07:13:32;5.90;58.00
1680;DHT22;838;51.794;12.258;2022-11-12T07:15:59;6.00;58.50
1680;DHT22;838;51.794;12.258;2022-11-12T07:18:26;6.20;58.40
1680;DHT22;838;51.794;12.258;2022-11-12T07:20:57;6.60;60.40
1680;DHT22;838;51.794;12.258;2022-11-12T07:23:24;7.20;59.90
1680;DHT22;838;51.794;12.258;2022-11-12T07:26:00;7.80;45.50
1680;DHT22;838;51.794;12.258;2022-11-12T07:28:27;8.10;39.40
1680;DHT22;838;51.794;12.258;2022-11-12T07:31:07;8.40;36.50
1680;DHT22;838;51.794;12.258;2022-11-12T07:33:34;8.60;31.60
1680;DHT22;838;51.794;12.258;2022-11-12T07:36:05;8.70;32.70
1680;DHT22;838;51.794;12.258;2022-11-12T07:38:34;8.80;31.10
1680;DHT22;838;51.794;12.258;2022-11-12T07:41:06;8.90;27.50
1680;DHT22;838;51.794;12.258;2022-11-12T07:43:34;9.10;28.10
1680;DHT22;838;51.794;12.258;2022-11-12T07:46:05;9.20;27.80
1680;DHT22;838;51.794;12.258;2022-11-12T07:48:32;9.60;28.40
1680;DHT22;838;51.794;12.258;2022-11-12T07:51:04;9.90;28.20
1680;DHT22;838;51.794;12.258;2022-11-12T07:53:31;9.80;28.00
1680;DHT22;838;51.794;12.258;2022-11-12T07:55:59;9.50;31.20
1680;DHT22;838;51.794;12.258;2022-11-12T07:58:26;8.80;38.60
1680;DHT22;838;51.794;12.258;2022-11-12T08:00:52;8.50;42.90
1680;DHT22;838;51.794;12.258;2022-11-12T08:03:18;8.50;40.20
1680;DHT22;838;51.794;12.258;2022-11-12T08:05:45;8.50;39.00
1680;DHT22;838;51.794;12.258;2022-11-12T08:08:11;8.70;39.50
1680;DHT22;838;51.794;12.258;2022-11-12T08:10:37;8.80;39.10
1680;DHT22;838;51.794;12.258;2022-11-12T08:13:03;8.90;36.90
1680;DHT22;838;51.794;12.258;2022-11-12T08:15:29;9.00;36.30
1680;DHT22;838;51.794;12.258;2022-11-12T08:17:55;9.10;38.20
1680;DHT22;838;51.794;12.258;2022-11-12T08:20:21;9.30;37.60
1680;DHT22;838;51.794;12.258;2022-11-12T08:22:47;9.50;40.30
1680;DHT22;838;51.794;12.258;2022-11-12T08:25:20;9.70;41.10
1680;DHT22;838;51.794;12.258;2022-11-12T08:27:58;10.10;37.70
1680;DHT22;838;51.794;12.258;2022-11-12T08:30:26;11.00;34.00
1680;DHT22;838;51.794;12.258;2022-11-12T08:33:03;11.90;26.40
1680;DHT22;838;51.794;12.258;2022-11-12T08:35:36;12.50;22.30
1680;DHT22;838;51.794;12.258;2022-11-12T08:38:09;12.60;20.00
1680;DHT22;838;51.794;12.258;2022-11-12T08:40:36;12.70;22.30
1680;DHT22;838;51.794;12.258;2022-11-12T08:43:07;12.80;17.70
1680;DHT22;838;51.794;12.258;2022-11-12T08:45:34;12.10;21.30
1680;DHT22;838;51.794;12.258;2022-11-12T08:48:07;11.30;26.90
1680;DHT22;838;51.794;12.258;2022-11-12T08:50:39;11.00;30.00
1680;DHT22;838;51.794;12.258;2022-11-12T08:53:07;11.10;29.80
1680;DHT22;838;51.794;12.258;2022-11-12T08:55:34;11.20;28.90
1680;DHT22;838;51.794;12.258;2022-11-12T08:58:01;11.20;28.20
1680;DHT22;838;51.794;12.258;2022-11-12T09:00:37;11.20;27.40
1680;DHT22;838;51.794;12.258;2022-11-12T09:03:14;11.30;26.40
1680;DHT22;838;51.794;12.258;2022-11-12T09:05:43;11.30;26.60
1680;DHT22;838;51.794;12.258;2022-11-12T09:08:15;11.30;26.10
1680;DHT22;838;51.794;12.258;2022-11-12T09:10:42;11.20;25.90
1680;DHT22;838;51.794;12.258;2022-11-12T09:13:11;11.00;27.90
1680;DHT22;838;51.794;12.258;2022-11-12T09:15:38;10.90;28.20
1680;DHT22;838;51.794;12.258;2022-11-12T09:18:17;10.90;28.80
1680;DHT22;838;51.794;12.258;2022-11-12T09:20:43;10.90;29.90
1680;DHT22;838;51.794;12.258;2022-11-12T09:23:14;11.00;30.20
1680;DHT22;838;51.794;12.258;2022-11-12T09:25:40;10.90;30.00
1680;DHT22;838;51.794;12.258;2022-11-12T09:28:13;10.40;34.20
1680;DHT22;838;51.794;12.258;2022-11-12T09:30:53;10.20;36.60
1680;DHT22;838;51.794;12.258;2022-11-12T09:33:24;10.30;38.80
1680;DHT22;838;51.794;12.258;2022-11-12T09:35:54;10.60;36.70
1680;DHT22;838;51.794;12.258;2022-11-12T09:38:33;10.60;36.70
1680;DHT22;838;51.794;12.258;2022-11-12T09:41:15;10.30;41.60
1680;DHT22;838;51.794;12.258;2022-11-12T09:43:52;10.40;42.20
1680;DHT22;838;51.794;12.258;2022-11-12T09:48:56;11.10;37.50
1680;DHT22;838;51.794;12.258;2022-11-12T09:51:31;11.40;36.40
1680;DHT22;838;51.794;12.258;2022-11-12T09:54:04;11.10;35.30
1680;DHT22;838;51.794;12.258;2022-11-12T09:56:31;10.40;38.80
1680;DHT22;838;51.794;12.258;2022-11-12T09:58:57;10.00;43.80
1680;DHT22;838;51.794;12.258;2022-11-12T10:10:07;10.00;53.90
1680;DHT22;838;51.794;12.258;2022-11-12T10:12:44;10.30;45.70
1680;DHT22;838;51.794;12.258;2022-11-12T10:15:36;10.40;46.00
1680;DHT22;838;51.794;12.258;2022-11-12T10:23:48;10.90;41.70
1680;DHT22;838;51.794;12.258;2022-11-12T10:26:17;10.70;41.70
1680;DHT22;838;51.794;12.258;2022-11-12T10:29:07;10.50;46.10
1680;DHT22;838;51.794;12.258;2022-11-12T10:31:38;10.60;47.40
1680;DHT22;838;51.794;12.258;2022-11-12T10:34:16;10.80;47.60
1680;DHT22;838;51.794;12.258;2022-11-12T10:36:57;11.10;46.60
1680;DHT22;838;51.794;12.258;2022-11-12T10:39:43;11.50;43.40
1680;DHT22;838;51.794;12.258;2022-11-12T10:42:14;12.00;37.70
1680;DHT22;838;51.794;12.258;2022-11-12T10:44:41;12.30;36.40
1680;DHT22;838;51.794;12.258;2022-11-12T10:47:39;12.80;31.40
1680;DHT22;838;51.794;12.258;2022-11-12T10:52:33;13.20;28.20
1680;DHT22;838;51.794;12.258;2022-11-12T10:55:26;13.40;27.60
1680;DHT22;838;51.794;12.258;2022-11-12T10:58:12;13.20;28.10
1680;DHT22;838;51.794;12.258;2022-11-12T11:01:13;13.00;31.40
1680;DHT22;838;51.794;12.258;2022-11-12T11:03:54;12.50;35.30
1680;DHT22;838;51.794;12.258;2022-11-12T11:06:25;12.80;32.80
1680;DHT22;838;51.794;12.258;2022-11-12T11:08:53;12.90;32.50
1680;DHT22;838;51.794;12.258;2022-11-12T11:11:33;13.10;28.40
1680;DHT22;838;51.794;12.258;2022-11-12T11:17:14;13.40;27.20
1680;DHT22;838;51.794;12.258;2022-11-12T11:19:41;13.60;26.40
1680;DHT22;838;51.794;12.258;2022-11-12T11:27:49;13.90;23.20
1680;DHT22;838;51.794;12.258;2022-11-12T11:30:19;14.00;22.50
1680;DHT22;838;51.794;12.258;2022-11-12T11:38:32;14.00;22.20
1680;DHT22;838;51.794;12.258;2022-11-12T11:47:19;14.00;23.30
1680;DHT22;838;51.794;12.258;2022-11-12T11:50:18;14.10;23.20
1680;DHT22;838;51.794;12.258;2022-11-12T11:55:45;14.30;22.40
1680;DHT22;838;51.794;12.258;2022-11-12T12:01:04;14.30;21.60
1680;DHT22;838;51.794;12.258;2022-11-12T12:06:43;14.50;22.90
1680;DHT22;838;51.794;12.258;2022-11-12T12:09:34;14.60;23.20
1680;DHT22;838;51.794;12.258;2022-11-12T12:12:34;14.60;22.20
1680;DHT22;838;51.794;12.258;2022-11-12T12:18:49;14.00;24.30
1680;DHT22;838;51.794;12.258;2022-11-12T12:26:02;14.00;25.10
1680;DHT22;838;51.794;12.258;2022-11-12T12:31:21;14.20;23.60
1680;DHT22;838;51.794;12.258;2022-11-12T12:33:52;13.90;27.50
1680;DHT22;838;51.794;12.258;2022-11-12T12:36:29;14.00;26.10
1680;DHT22;838;51.794;12.258;2022-11-12T12:39:17;14.10;24.60
1680;DHT22;838;51.794;12.258;2022-11-12T12:44:40;14.10;25.90
1680;DHT22;838;51.794;12.258;2022-11-12T12:47:33;14.30;24.70
1680;DHT22;838;51.794;12.258;2022-11-12T12:50:05;14.70;22.70
1680;DHT22;838;51.794;12.258;2022-11-12T12:55:54;15.40;16.30
1680;DHT22;838;51.794;12.258;2022-11-12T12:58:28;15.50;18.10
1680;DHT22;838;51.794;12.258;2022-11-12T13:01:27;15.60;15.90
1680;DHT22;838;51.794;12.258;2022-11-12T13:04:05;15.60;15.60
1680;DHT22;838;51.794;12.258;2022-11-12T13:06:51;15.50;17.30
1680;DHT22;838;51.794;12.258;2022-11-12T13:25:27;16.70;8.20
1680;DHT22;838;51.794;12.258;2022-11-12T13:32:59;17.10;4.30
1680;DHT22;838;51.794;12.258;2022-11-12T13:35:30;17.20;4.20
1680;DHT22;838;51.794;12.258;2022-11-12T13:46:14;17.20;4.00
1680;DHT22;838;51.794;12.258;2022-11-12T13:49:02;17.40;3.80
1680;DHT22;838;51.794;12.258;2022-11-12T13:51:38;17.40;2.60
1680;DHT22;838;51.794;12.258;2022-11-12T13:54:43;17.40;1.90
1680;DHT22;838;51.794;12.258;2022-11-12T13:57:31;17.50;1.80
1680;DHT22;838;51.794;12.258;2022-11-12T14:00:29;17.50;1.30
1680;DHT22;838;51.794;12.258;2022-11-12T14:03:12;17.30;1.20
1680;DHT22;838;51.794;12.258;2022-11-12T14:05:49;17.40;2.20
1680;DHT22;838;51.794;12.258;2022-11-12T14:11:25;17.30;1.10
1680;DHT22;838;51.794;12.258;2022-11-12T14:20:34;17.00;2.20
1680;DHT22;838;51.794;12.258;2022-11-12T14:23:34;16.90;2.70
1680;DHT22;838;51.794;12.258;2022-11-12T14:26:39;16.80;3.80
1680;DHT22;838;51.794;12.258;2022-11-12T14:29:00;16.70;4.20
1680;DHT22;838;51.794;12.258;2022-11-12T14:31:25;16.20;6.30
1680;DHT22;838;51.794;12.258;2022-11-12T14:33:51;16.10;8.10
1680;DHT22;838;51.794;12.258;2022-11-12T14:36:17;16.10;7.50
1680;DHT22;838;51.794;12.258;2022-11-12T14:38:54;15.80;9.20
1680;DHT22;838;51.794;12.258;2022-11-12T14:41:24;15.70;9.00
1680;DHT22;838;51.794;12.258;2022-11-12T14:43:55;15.60;9.60
1680;DHT22;838;51.794;12.258;2022-11-12T14:46:27;15.60;9.70
1680;DHT22;838;51.794;12.258;2022-11-12T14:49:01;15.20;12.50
1680;DHT22;838;51.794;12.258;2022-11-12T14:51:29;15.10;13.60
1680;DHT22;838;51.794;12.258;2022-11-12T14:54:00;14.90;16.00
1680;DHT22;838;51.794;12.258;2022-11-12T14:56:39;14.70;19.20
1680;DHT22;838;51.794;12.258;2022-11-12T14:59:05;14.70;17.80
1680;DHT22;838;51.794;12.258;2022-11-12T15:01:36;14.60;19.30
1680;DHT22;838;51.794;12.258;2022-11-12T15:04:24;14.50;20.40
1680;DHT22;838;51.794;12.258;2022-11-12T15:06:54;14.50;20.10
1680;DHT22;838;51.794;12.258;2022-11-12T15:09:37;14.40;19.80
1680;DHT22;838;51.794;12.258;2022-11-12T15:12:06;14.40;19.80
1680;DHT22;838;51.794;12.258;2022-11-12T15:14:33;14.20;20.40
1680;DHT22;838;51.794;12.258;2022-11-12T15:16:59;14.10;21.50
1680;DHT22;838;51.794;12.258;2022-11-12T15:19:26;13.80;21.80
1680;DHT22;838;51.794;12.258;2022-11-12T15:21:56;13.70;23.10
1680;DHT22;838;51.794;12.258;2022-11-12T15:24:33;13.40;25.50
1680;DHT22;838;51.794;12.258;2022-11-12T15:27:30;13.20;26.20
1680;DHT22;838;51.794;12.258;2022-11-12T15:32:49;12.90;27.50
1680;DHT22;838;51.794;12.258;2022-11-12T15:37:50;12.70;28.40
1680;DHT22;838;51.794;12.258;2022-11-12T15:40:18;12.70;28.70
1680;DHT22;838;51.794;12.258;2022-11-12T15:42:45;12.60;28.70
1680;DHT22;838;51.794;12.258;2022-11-12T15:45:15;12.60;28.00
1680;DHT22;838;51.794;12.258;2022-11-12T15:47:41;12.50;28.30
1680;DHT22;838;51.794;12.258;2022-11-12T15:50:17;12.50;28.00
1680;DHT22;838;51.794;12.258;2022-11-12T15:52:44;12.30;28.80
1680;DHT22;838;51.794;12.258;2022-11-12T15:55:13;12.10;28.30
1680;DHT22;838;51.794;12.258;2022-11-12T15:57:51;11.80;30.40
1680;DHT22;838;51.794;12.258;2022-11-12T16:02:43;11.60;34.30
1680;DHT22;838;51.794;12.258;2022-11-12T16:05:17;11.40;33.10
1680;DHT22;838;51.794;12.258;2022-11-12T16:07:43;11.30;33.50
1680;DHT22;838;51.794;12.258;2022-11-12T16:10:13;11.30;33.10
1680;DHT22;838;51.794;12.258;2022-11-12T16:12:40;11.30;33.90
1680;DHT22;838;51.794;12.258;2022-11-12T16:15:17;11.20;34.70
1680;DHT22;838;51.794;12.258;2022-11-12T16:17:44;11.10;36.80
1680;DHT22;838;51.794;12.258;2022-11-12T16:20:19;11.10;34.50
1680;DHT22;838;51.794;12.258;2022-11-12T16:22:49;11.00;34.60
1680;DHT22;838;51.794;12.258;2022-11-12T16:25:15;11.00;34.50
1680;DHT22;838;51.794;12.258;2022-11-12T16:27:41;10.90;33.80
1680;DHT22;838;51.794;12.258;2022-11-12T16:30:19;10.70;33.30
1680;DHT22;838;51.794;12.258;2022-11-12T16:32:46;10.70;34.00
1680;DHT22;838;51.794;12.258;2022-11-12T16:35:12;10.40;39.20
1680;DHT22;838;51.794;12.258;2022-11-12T16:37:39;10.40;39.70
1680;DHT22;838;51.794;12.258;2022-11-12T16:40:08;10.40;39.20
1680;DHT22;838;51.794;12.258;2022-11-12T16:42:37;10.50;39.30
1680;DHT22;838;51.794;12.258;2022-11-12T16:45:16;10.50;39.10
1680;DHT22;838;51.794;12.258;2022-11-12T16:47:45;10.50;37.50
1680;DHT22;838;51.794;12.258;2022-11-12T16:50:16;10.40;35.90
1680;DHT22;838;51.794;12.258;2022-11-12T16:52:42;10.30;35.50
1680;DHT22;838;51.794;12.258;2022-11-12T16:55:09;10.30;37.10
1680;DHT22;838;51.794;12.258;2022-11-12T16:57:35;10.20;38.20
1680;DHT22;838;51.794;12.258;2022-11-12T17:00:01;10.20;36.30
1680;DHT22;838;51.794;12.258;2022-11-12T17:02:27;10.10;35.70
1680;DHT22;838;51.794;12.258;2022-11-12T17:04:53;10.10;37.30
1680;DHT22;838;51.794;12.258;2022-11-12T17:07:19;10.00;36.50
1680;DHT22;838;51.794;12.258;2022-11-12T17:09:44;9.80;38.70
1680;DHT22;838;51.794;12.258;2022-11-12T17:12:11;9.80;38.50
1680;DHT22;838;51.794;12.258;2022-11-12T17:14:36;9.80;37.20
1680;DHT22;838;51.794;12.258;2022-11-12T17:17:02;9.90;37.40
1680;DHT22;838;51.794;12.258;2022-11-12T17:19:28;9.80;37.30
1680;DHT22;838;51.794;12.258;2022-11-12T17:21:54;9.70;37.40
1680;DHT22;838;51.794;12.258;2022-11-12T17:24:19;9.80;36.80
1680;DHT22;838;51.794;12.258;2022-11-12T17:26:45;9.70;36.30
1680;DHT22;838;51.794;12.258;2022-11-12T17:29:11;9.70;37.40
1680;DHT22;838;51.794;12.258;2022-11-12T17:31:37;9.70;36.80
1680;DHT22;838;51.794;12.258;2022-11-12T17:34:05;9.70;36.90
1680;DHT22;838;51.794;12.258;2022-11-12T17:36:31;9.70;36.90
1680;DHT22;838;51.794;12.258;2022-11-12T17:38:58;9.60;36.50
1680;DHT22;838;51.794;12.258;2022-11-12T17:41:26;9.50;36.40
1680;DHT22;838;51.794;12.258;2022-11-12T17:43:59;9.20;39.00
1680;DHT22;838;51.794;12.258;2022-11-12T17:46:25;9.30;38.00
1680;DHT22;838;51.794;12.258;2022-11-12T17:48:51;9.20;36.10
1680;DHT22;838;51.794;12.258;2022-11-12T17:51:19;9.20;36.70
1680;DHT22;838;51.794;12.258;2022-11-12T17:53:46;9.10;36.80
1680;DHT22;838;51.794;12.258;2022-11-12T17:56:14;9.20;36.20
1680;DHT22;838;51.794;12.258;2022-11-12T17:58:41;9.20;35.90
1680;DHT22;838;51.794;12.258;2022-11-12T18:01:16;9.10;35.00
1680;DHT22;838;51.794;12.258;2022-11-12T18:03:44;9.00;36.10
1680;DHT22;838;51.794;12.258;2022-11-12T18:06:14;9.00;36.90
1680;DHT22;838;51.794;12.258;2022-11-12T18:08:41;9.00;36.30
1680;DHT22;838;51.794;12.258;2022-11-12T18:11:09;8.90;34.10
1680;DHT22;838;51.794;12.258;2022-11-12T18:13:35;8.70;33.90
1680;DHT22;838;51.794;12.258;2022-11-12T18:16:01;8.60;34.50
1680;DHT22;838;51.794;12.258;2022-11-12T18:18:28;8.50;37.40
1680;DHT22;838;51.794;12.258;2022-11-12T18:20:54;8.50;37.70
1680;DHT22;838;51.794;12.258;2022-11-12T18:23:20;8.50;35.50
1680;DHT22;838;51.794;12.258;2022-11-12T18:25:45;8.50;33.20